createdAt,value
2022-08-05T09:16:02.414Z,39.99
2022-08-05T09:20:36.675Z,38.93
2022-08-05T09:24:55.785Z,37.07
2022-08-05T09:29:08.877Z,37.52
2022-08-05T09:33:34.914Z,36.77
2022-08-05T09:38:17.423Z,36.64
2022-08-05T09:42:28.140Z,36.02
2022-08-05T09:46:36.920Z,34.87
2022-08-05T09:50:50.113Z,34.55
2022-08-05T09:55:06.473Z,34.14
2022-08-05T09:59:35.023Z,33.56
2022-08-05T10:04:00.485Z,32.51
2022-08-05T10:08:37.365Z,32.08
2022-08-05T10:12:49.674Z,32.15
2022-08-05T10:17:36.785Z,31.02
2022-08-05T10:21:42.571Z,30.94
2022-08-05T10:25:50.296Z,31.28
2022-08-05T10:30:06.770Z,30.35
2022-08-05T10:34:31.149Z,32.16
2022-08-05T10:38:46.617Z,31.52
2022-08-05T10:42:56.616Z,30.80
2022-08-05T10:47:26.687Z,30.13
2022-08-05T10:51:53.124Z,29.37
2022-08-05T10:56:21.455Z,29.99
2022-08-05T11:00:42.166Z,29.70
2022-08-05T11:05:04.116Z,29.94
2022-08-05T11:09:31.914Z,29.55
2022-08-05T11:13:57.753Z,28.98
2022-08-05T11:18:30.010Z,29.14
2022-08-05T11:22:49.938Z,28.45
2022-08-05T11:27:51.191Z,28.00
2022-08-05T11:32:35.133Z,28.35
2022-08-05T11:36:47.120Z,27.49
2022-08-05T11:41:34.397Z,27.42
2022-08-05T11:46:27.562Z,26.76
2022-08-05T11:50:04.466Z,26.41
2022-08-05T11:54:16.603Z,26.09
2022-08-05T11:58:40.445Z,26.67
2022-08-05T12:02:52.041Z,25.94
2022-08-05T12:07:03.848Z,26.10
2022-08-05T12:11:20.335Z,25.92
2022-08-05T12:15:37.961Z,25.30
2022-08-05T12:20:26.825Z,25.41
2022-08-05T12:24:17.606Z,25.58
2022-08-05T12:28:38.759Z,25.36
2022-08-05T12:32:51.258Z,23.88
2022-08-05T12:37:00.896Z,24.41
2022-08-05T12:41:16.175Z,23.97
2022-08-05T12:45:48.396Z,23.91
2022-08-05T12:50:04.139Z,23.32
2022-08-05T12:54:23.574Z,23.27
2022-08-05T12:58:51.067Z,23.77
2022-08-05T13:03:01.783Z,23.90
2022-08-05T13:07:16.082Z,23.64
2022-08-05T13:12:02.191Z,22.98
2022-08-05T13:15:58.176Z,24.05
2022-08-05T13:20:08.668Z,24.34
2022-08-05T13:24:36.306Z,23.77
2022-08-05T13:28:46.419Z,23.30
2022-08-05T13:32:56.416Z,22.74
2022-08-05T13:37:04.554Z,22.93
2022-08-05T13:41:16.877Z,22.67
2022-08-05T13:45:33.966Z,23.55
2022-08-05T13:49:46.573Z,23.58
2022-08-05T13:53:56.471Z,22.29
2022-08-05T13:58:06.186Z,23.14
2022-08-05T14:02:20.073Z,23.24
2022-08-05T14:06:34.691Z,22.74
2022-08-05T14:10:44.197Z,22.82
2022-08-05T14:14:52.977Z,23.67
2022-08-05T14:19:04.601Z,23.37
2022-08-05T14:23:12.962Z,23.42
2022-08-05T14:27:23.046Z,22.85
2022-08-05T14:32:02.411Z,23.79
2022-08-05T14:36:03.753Z,23.51
2022-08-05T14:40:17.205Z,22.74
2022-08-05T14:44:24.515Z,22.06
2022-08-05T14:48:38.259Z,22.86
2022-08-05T14:52:53.101Z,23.18
2022-08-05T14:57:09.732Z,23.67
2022-08-05T15:01:47.994Z,24.42
2022-08-05T15:06:07.910Z,23.91
2022-08-05T15:10:17.031Z,23.05
2022-08-05T15:14:35.034Z,22.72
2022-08-05T15:18:47.052Z,22.81
2022-08-05T15:22:56.500Z,22.46
2022-08-05T15:27:04.159Z,22.62
2022-08-05T15:31:17.441Z,22.92
2022-08-05T15:35:27.941Z,23.70
2022-08-05T15:41:01.807Z,23.75
2022-08-05T15:44:11.975Z,24.07
2022-08-05T15:48:21.233Z,24.35
2022-08-05T15:52:53.820Z,24.14
2022-08-05T15:56:57.484Z,23.99
2022-08-05T16:01:16.291Z,23.88
2022-08-05T16:05:28.245Z,23.85
2022-08-05T16:09:36.195Z,23.96
2022-08-05T16:13:45.784Z,23.72
2022-08-05T16:17:58.009Z,23.10
2022-08-05T16:22:07.613Z,23.78
2022-08-05T16:26:26.522Z,24.70
2022-08-05T16:30:36.187Z,24.67
2022-08-05T16:34:44.161Z,24.93
2022-08-05T16:38:54.312Z,25.96
2022-08-05T16:43:03.238Z,28.85
2022-08-05T16:47:11.033Z,31.99
2022-08-05T16:51:42.412Z,32.26
2022-08-05T16:55:57.890Z,34.51
2022-08-05T17:00:10.505Z,35.22
2022-08-05T17:04:20.728Z,36.36
2022-08-05T17:08:36.568Z,37.36
2022-08-05T17:13:00.689Z,37.00
2022-08-05T17:17:15.233Z,37.61
2022-08-05T17:21:23.898Z,40.57
2022-08-05T17:25:39.252Z,40.60
2022-08-05T17:29:52.764Z,41.69
2022-08-05T17:34:07.614Z,42.35
2022-08-05T17:38:20.363Z,42.94
2022-08-05T17:42:30.045Z,43.35
2022-08-05T17:46:41.006Z,42.89
2022-08-05T17:50:52.351Z,43.19
2022-08-05T17:55:01.269Z,42.33
2022-08-05T17:59:11.178Z,42.09
2022-08-05T18:07:57.816Z,38.40
2022-08-05T18:12:10.161Z,37.29
2022-08-05T18:16:20.604Z,37.07
2022-08-05T18:20:31.551Z,37.11
2022-08-05T18:24:39.924Z,37.54
2022-08-05T18:28:48.344Z,37.61
2022-08-05T18:33:00.482Z,37.90
2022-08-05T18:37:12.192Z,38.20
2022-08-05T18:41:55.277Z,38.68
2022-08-05T18:45:49.187Z,39.01
2022-08-05T18:50:15.746Z,39.72
2022-08-05T18:54:23.472Z,39.96
2022-08-05T18:58:31.267Z,40.43
2022-08-05T19:02:44.137Z,40.93
2022-08-05T19:06:53.549Z,41.25
2022-08-05T19:11:05.167Z,41.76
2022-08-05T19:15:58.259Z,42.02
2022-08-05T19:19:46.743Z,42.41
2022-08-05T19:24:08.091Z,42.76
2022-08-05T19:28:16.745Z,43.00
2022-08-05T19:32:27.938Z,43.40
2022-08-05T19:36:35.730Z,44.06
2022-08-05T19:40:45.462Z,44.52
2022-08-05T19:44:54.116Z,44.67
2022-08-05T19:49:04.201Z,44.07
2022-08-05T19:53:11.880Z,43.82
2022-08-05T19:57:49.319Z,43.75
2022-08-05T20:01:50.197Z,44.14
2022-08-05T20:05:58.001Z,44.36
2022-08-05T20:10:13.331Z,44.61
2022-08-05T20:14:26.784Z,44.84
2022-08-05T20:18:36.538Z,45.21
2022-08-05T20:22:44.359Z,45.97
2022-08-05T20:26:54.380Z,46.38
2022-08-05T20:31:06.376Z,46.81
2022-08-05T20:35:14.223Z,46.94
2022-08-05T20:39:24.055Z,47.39
2022-08-05T20:43:57.358Z,47.71
2022-08-05T20:48:00.004Z,47.90
2022-08-05T20:52:08.592Z,48.27
2022-08-05T20:56:16.238Z,48.35
2022-08-05T21:00:41.312Z,48.41
2022-08-05T21:05:02.640Z,48.67
2022-08-05T21:09:10.353Z,49.26
2022-08-05T21:13:36.767Z,49.93
2022-08-05T21:17:48.125Z,50.39
2022-08-05T21:22:00.069Z,50.99
2022-08-05T21:26:12.468Z,52.21
2022-08-05T21:30:22.008Z,54.15
2022-08-05T21:34:33.057Z,56.60
2022-08-05T21:38:43.161Z,58.15
2022-08-05T21:42:54.306Z,58.49
2022-08-05T21:47:32.833Z,58.90
2022-08-05T21:52:22.826Z,59.95
2022-08-05T21:56:16.186Z,60.16
2022-08-05T22:00:24.756Z,60.60
2022-08-05T22:04:32.424Z,60.66
2022-08-05T22:08:42.520Z,60.78
2022-08-05T22:12:50.573Z,60.98
2022-08-05T22:17:02.987Z,61.32
2022-08-05T22:21:18.739Z,61.71
2022-08-05T22:26:10.657Z,61.79
2022-08-05T22:30:17.357Z,62.29
2022-08-05T22:34:28.295Z,62.50
2022-08-05T22:38:36.671Z,62.73
2022-08-05T22:42:45.844Z,62.89
2022-08-05T22:47:00.730Z,63.37
2022-08-05T22:51:16.105Z,63.40
2022-08-05T22:55:37.209Z,63.66
2022-08-05T22:59:58.161Z,63.74
2022-08-05T23:04:06.681Z,63.52
2022-08-05T23:08:14.877Z,63.91
2022-08-05T23:12:28.859Z,63.75
2022-08-05T23:16:56.364Z,63.69
2022-08-05T23:21:06.297Z,63.71
2022-08-05T23:25:52.763Z,63.91
2022-08-05T23:29:46.242Z,64.21
2022-08-05T23:34:05.176Z,64.44
2022-08-05T23:38:14.559Z,64.44
2022-08-05T23:42:29.148Z,64.49
2022-08-05T23:46:37.470Z,64.69
2022-08-05T23:50:47.187Z,65.11
2022-08-05T23:54:55.215Z,65.52
2022-08-05T23:59:03.620Z,65.88
